Terminal Aerodrome Forecast
Issued by NWS Cleveland, OH

Home | Current Version | Previous Version | Text Only | Print | Product List | Glossary Off
Versions: 1 2 3 4 5 6 7 8 9 10 11 12 13 14 15 16 17 18

332
FTUS41 KCLE 200726 AAA
TAFCAK
TAF AMD
KCAK 200726Z 2007/2106 16005KT 4SM BR SCT025 OVC035
     FM201000 18005KT P6SM SCT035 OVC050
     FM201300 18010KT P6SM SCT025 BKN050
     FM201700 22015G25KT P6SM BKN050
     FM210000 25015G25KT 5SM -SHRA OVC035
      TEMPO 2100/2103 27020G40KT 2SM TSRA OVC020CB
     FM210500 27012KT P6SM BKN080=

USA.gov is the U.S. government's official web portal to all federal, state and local government web resources and services.